sensor_id;sensor_type;location;lat;lon;timestamp;P1;durP1;ratioP1;P2;durP2;ratioP2
15159;SDS011;7680;48.800;9.680;2022-07-12T00:00:27;7.40;;;6.80;;
15159;SDS011;7680;48.800;9.680;2022-07-12T00:03:00;7.22;;;6.70;;
15159;SDS011;7680;48.800;9.680;2022-07-12T00:05:33;7.97;;;7.30;;
15159;SDS011;7680;48.800;9.680;2022-07-12T00:08:07;7.30;;;6.70;;
15159;SDS011;7680;48.800;9.680;2022-07-12T00:10:40;7.32;;;6.82;;
15159;SDS011;7680;48.800;9.680;2022-07-12T00:13:14;7.22;;;6.53;;
15159;SDS011;7680;48.800;9.680;2022-07-12T00:15:47;6.93;;;6.43;;
15159;SDS011;7680;48.800;9.680;2022-07-12T00:18:20;6.90;;;6.30;;
15159;SDS011;7680;48.800;9.680;2022-07-12T00:20:54;7.32;;;6.72;;
15159;SDS011;7680;48.800;9.680;2022-07-12T00:23:27;6.88;;;6.38;;
15159;SDS011;7680;48.800;9.680;2022-07-12T00:26:00;7.05;;;6.45;;
15159;SDS011;7680;48.800;9.680;2022-07-12T00:28:37;7.00;;;6.40;;
15159;SDS011;7680;48.800;9.680;2022-07-12T00:31:10;8.00;;;7.40;;
15159;SDS011;7680;48.800;9.680;2022-07-12T00:33:43;7.50;;;6.90;;
15159;SDS011;7680;48.800;9.680;2022-07-12T00:36:16;7.43;;;6.93;;
15159;SDS011;7680;48.800;9.680;2022-07-12T00:38:50;7.00;;;6.40;;
15159;SDS011;7680;48.800;9.680;2022-07-12T00:41:23;8.23;;;7.53;;
15159;SDS011;7680;48.800;9.680;2022-07-12T00:43:57;8.05;;;7.35;;
15159;SDS011;7680;48.800;9.680;2022-07-12T00:46:30;7.50;;;6.90;;
15159;SDS011;7680;48.800;9.680;2022-07-12T00:49:04;7.00;;;6.50;;
15159;SDS011;7680;48.800;9.680;2022-07-12T00:51:37;8.15;;;7.45;;
15159;SDS011;7680;48.800;9.680;2022-07-12T00:54:10;7.38;;;6.78;;
15159;SDS011;7680;48.800;9.680;2022-07-12T00:56:44;7.35;;;6.80;;
15159;SDS011;7680;48.800;9.680;2022-07-12T00:59:18;7.85;;;7.25;;
15159;SDS011;7680;48.800;9.680;2022-07-12T01:01:51;7.07;;;6.57;;
15159;SDS011;7680;48.800;9.680;2022-07-12T01:04:24;8.00;;;7.40;;
15159;SDS011;7680;48.800;9.680;2022-07-12T01:06:58;7.50;;;7.00;;
15159;SDS011;7680;48.800;9.680;2022-07-12T01:09:32;7.72;;;7.13;;
15159;SDS011;7680;48.800;9.680;2022-07-12T01:12:05;7.13;;;6.63;;
15159;SDS011;7680;48.800;9.680;2022-07-12T01:14:40;7.18;;;6.55;;
15159;SDS011;7680;48.800;9.680;2022-07-12T01:17:13;7.97;;;7.28;;
15159;SDS011;7680;48.800;9.680;2022-07-12T01:19:47;7.20;;;6.70;;
15159;SDS011;7680;48.800;9.680;2022-07-12T01:22:32;8.40;;;7.70;;
15159;SDS011;7680;48.800;9.680;2022-07-12T01:25:08;7.43;;;6.82;;
15159;SDS011;7680;48.800;9.680;2022-07-12T01:27:41;7.05;;;6.50;;
15159;SDS011;7680;48.800;9.680;2022-07-12T01:30:15;7.57;;;6.95;;
15159;SDS011;7680;48.800;9.680;2022-07-12T01:32:48;7.18;;;6.57;;
15159;SDS011;7680;48.800;9.680;2022-07-12T01:35:23;6.30;;;5.90;;
15159;SDS011;7680;48.800;9.680;2022-07-12T01:37:57;7.20;;;6.60;;
15159;SDS011;7680;48.800;9.680;2022-07-12T01:40:32;6.82;;;6.32;;
15159;SDS011;7680;48.800;9.680;2022-07-12T01:43:07;7.43;;;6.93;;
15159;SDS011;7680;48.800;9.680;2022-07-12T01:45:40;7.82;;;7.18;;
15159;SDS011;7680;48.800;9.680;2022-07-12T01:48:13;7.57;;;6.78;;
15159;SDS011;7680;48.800;9.680;2022-07-12T01:50:47;6.80;;;6.20;;
15159;SDS011;7680;48.800;9.680;2022-07-12T01:53:20;7.10;;;6.60;;
15159;SDS011;7680;48.800;9.680;2022-07-12T01:55:54;7.57;;;7.00;;
15159;SDS011;7680;48.800;9.680;2022-07-12T01:58:28;6.93;;;6.22;;
15159;SDS011;7680;48.800;9.680;2022-07-12T02:01:01;6.80;;;6.30;;
15159;SDS011;7680;48.800;9.680;2022-07-12T02:03:34;6.63;;;6.13;;
15159;SDS011;7680;48.800;9.680;2022-07-12T02:06:08;6.68;;;6.18;;
15159;SDS011;7680;48.800;9.680;2022-07-12T02:08:41;7.35;;;6.72;;
15159;SDS011;7680;48.800;9.680;2022-07-12T02:11:16;6.88;;;6.38;;
15159;SDS011;7680;48.800;9.680;2022-07-12T02:13:49;6.63;;;6.13;;
15159;SDS011;7680;48.800;9.680;2022-07-12T02:16:22;7.35;;;6.75;;
15159;SDS011;7680;48.800;9.680;2022-07-12T02:18:55;6.95;;;6.43;;
15159;SDS011;7680;48.800;9.680;2022-07-12T02:21:30;6.43;;;5.93;;
15159;SDS011;7680;48.800;9.680;2022-07-12T02:24:03;6.22;;;5.75;;
15159;SDS011;7680;48.800;9.680;2022-07-12T02:26:38;6.30;;;5.80;;
15159;SDS011;7680;48.800;9.680;2022-07-12T02:29:12;7.10;;;6.60;;
15159;SDS011;7680;48.800;9.680;2022-07-12T02:31:45;6.65;;;6.22;;
15159;SDS011;7680;48.800;9.680;2022-07-12T02:34:18;6.78;;;6.28;;
15159;SDS011;7680;48.800;9.680;2022-07-12T02:36:51;6.47;;;6.05;;
15159;SDS011;7680;48.800;9.680;2022-07-12T02:39:24;7.03;;;6.53;;
15159;SDS011;7680;48.800;9.680;2022-07-12T02:41:59;6.10;;;5.57;;
15159;SDS011;7680;48.800;9.680;2022-07-12T02:44:32;7.28;;;6.60;;
15159;SDS011;7680;48.800;9.680;2022-07-12T02:47:05;6.53;;;6.03;;
15159;SDS011;7680;48.800;9.680;2022-07-12T02:49:38;6.68;;;6.18;;
15159;SDS011;7680;48.800;9.680;2022-07-12T02:52:11;6.90;;;6.40;;
15159;SDS011;7680;48.800;9.680;2022-07-12T02:54:44;6.80;;;6.30;;
15159;SDS011;7680;48.800;9.680;2022-07-12T02:57:19;6.65;;;5.95;;
15159;SDS011;7680;48.800;9.680;2022-07-12T02:59:52;7.10;;;6.50;;
15159;SDS011;7680;48.800;9.680;2022-07-12T03:02:25;6.07;;;5.68;;
15159;SDS011;7680;48.800;9.680;2022-07-12T03:04:58;6.40;;;5.90;;
15159;SDS011;7680;48.800;9.680;2022-07-12T03:07:31;6.45;;;6.05;;
15159;SDS011;7680;48.800;9.680;2022-07-12T03:10:05;6.07;;;5.60;;
15159;SDS011;7680;48.800;9.680;2022-07-12T03:12:40;6.05;;;5.65;;
15159;SDS011;7680;48.800;9.680;2022-07-12T03:15:13;5.95;;;5.55;;
15159;SDS011;7680;48.800;9.680;2022-07-12T03:17:46;6.15;;;5.75;;
15159;SDS011;7680;48.800;9.680;2022-07-12T03:20:19;6.70;;;6.30;;
15159;SDS011;7680;48.800;9.680;2022-07-12T03:22:53;6.32;;;5.82;;
15159;SDS011;7680;48.800;9.680;2022-07-12T03:25:26;5.57;;;5.07;;
15159;SDS011;7680;48.800;9.680;2022-07-12T03:28:00;6.47;;;5.97;;
15159;SDS011;7680;48.800;9.680;2022-07-12T03:30:33;6.50;;;6.03;;
15159;SDS011;7680;48.800;9.680;2022-07-12T03:33:06;6.35;;;5.88;;
15159;SDS011;7680;48.800;9.680;2022-07-12T03:35:40;6.40;;;5.90;;
15159;SDS011;7680;48.800;9.680;2022-07-12T03:38:13;6.40;;;5.93;;
15159;SDS011;7680;48.800;9.680;2022-07-12T03:40:46;6.25;;;5.65;;
15159;SDS011;7680;48.800;9.680;2022-07-12T03:43:21;6.65;;;6.15;;
15159;SDS011;7680;48.800;9.680;2022-07-12T03:45:54;5.40;;;5.00;;
15159;SDS011;7680;48.800;9.680;2022-07-12T03:48:27;5.88;;;5.47;;
15159;SDS011;7680;48.800;9.680;2022-07-12T03:51:00;6.05;;;5.55;;
15159;SDS011;7680;48.800;9.680;2022-07-12T03:53:33;6.40;;;5.90;;
15159;SDS011;7680;48.800;9.680;2022-07-12T03:56:07;5.68;;;5.28;;
15159;SDS011;7680;48.800;9.680;2022-07-12T03:58:41;6.07;;;5.68;;
15159;SDS011;7680;48.800;9.680;2022-07-12T04:01:14;5.72;;;5.32;;
15159;SDS011;7680;48.800;9.680;2022-07-12T04:03:48;5.97;;;5.57;;
15159;SDS011;7680;48.800;9.680;2022-07-12T04:06:21;6.40;;;5.90;;
15159;SDS011;7680;48.800;9.680;2022-07-12T04:08:54;5.57;;;5.28;;
15159;SDS011;7680;48.800;9.680;2022-07-12T04:11:27;5.43;;;5.03;;
15159;SDS011;7680;48.800;9.680;2022-07-12T04:14:02;5.70;;;5.30;;
15159;SDS011;7680;48.800;9.680;2022-07-12T04:16:35;5.53;;;5.22;;
15159;SDS011;7680;48.800;9.680;2022-07-12T04:19:08;6.43;;;5.93;;
15159;SDS011;7680;48.800;9.680;2022-07-12T04:21:41;5.80;;;5.40;;
15159;SDS011;7680;48.800;9.680;2022-07-12T04:24:14;6.15;;;5.75;;
15159;SDS011;7680;48.800;9.680;2022-07-12T04:26:47;6.40;;;5.90;;
15159;SDS011;7680;48.800;9.680;2022-07-12T04:29:22;5.70;;;5.28;;
15159;SDS011;7680;48.800;9.680;2022-07-12T04:31:55;5.95;;;5.45;;
15159;SDS011;7680;48.800;9.680;2022-07-12T04:34:28;6.20;;;5.80;;
15159;SDS011;7680;48.800;9.680;2022-07-12T04:37:02;5.90;;;5.50;;
15159;SDS011;7680;48.800;9.680;2022-07-12T04:39:35;5.90;;;5.50;;
15159;SDS011;7680;48.800;9.680;2022-07-12T04:42:08;5.97;;;5.47;;
15159;SDS011;7680;48.800;9.680;2022-07-12T04:44:43;6.10;;;5.70;;
15159;SDS011;7680;48.800;9.680;2022-07-12T04:47:16;6.32;;;5.75;;
15159;SDS011;7680;48.800;9.680;2022-07-12T04:49:49;6.85;;;6.25;;
15159;SDS011;7680;48.800;9.680;2022-07-12T04:52:22;5.68;;;5.28;;
15159;SDS011;7680;48.800;9.680;2022-07-12T04:54:55;6.18;;;5.78;;
15159;SDS011;7680;48.800;9.680;2022-07-12T04:57:29;7.03;;;6.53;;
15159;SDS011;7680;48.800;9.680;2022-07-12T05:00:04;6.80;;;6.22;;
15159;SDS011;7680;48.800;9.680;2022-07-12T05:02:39;6.28;;;5.88;;
15159;SDS011;7680;48.800;9.680;2022-07-12T05:05:12;6.43;;;5.97;;
15159;SDS011;7680;48.800;9.680;2022-07-12T05:07:46;6.82;;;6.22;;
15159;SDS011;7680;48.800;9.680;2022-07-12T05:10:19;6.20;;;5.70;;
15159;SDS011;7680;48.800;9.680;2022-07-12T05:12:52;6.53;;;6.03;;
15159;SDS011;7680;48.800;9.680;2022-07-12T05:15:27;6.68;;;6.18;;
15159;SDS011;7680;48.800;9.680;2022-07-12T05:18:01;6.53;;;6.00;;
15159;SDS011;7680;48.800;9.680;2022-07-12T05:20:34;5.82;;;5.40;;
15159;SDS011;7680;48.800;9.680;2022-07-12T05:23:07;5.78;;;5.38;;
15159;SDS011;7680;48.800;9.680;2022-07-12T05:25:40;5.55;;;5.15;;
15159;SDS011;7680;48.800;9.680;2022-07-12T05:28:13;5.82;;;5.32;;
15159;SDS011;7680;48.800;9.680;2022-07-12T05:30:48;5.65;;;5.15;;
15159;SDS011;7680;48.800;9.680;2022-07-12T05:33:21;5.35;;;4.93;;
15159;SDS011;7680;48.800;9.680;2022-07-12T05:35:55;5.40;;;4.97;;
15159;SDS011;7680;48.800;9.680;2022-07-12T05:38:28;5.10;;;4.70;;
15159;SDS011;7680;48.800;9.680;2022-07-12T05:41:01;5.10;;;4.70;;
15159;SDS011;7680;48.800;9.680;2022-07-12T05:43:34;4.75;;;4.43;;
15159;SDS011;7680;48.800;9.680;2022-07-12T05:46:08;5.10;;;4.80;;
15159;SDS011;7680;48.800;9.680;2022-07-12T05:48:42;5.28;;;4.88;;
15159;SDS011;7680;48.800;9.680;2022-07-12T05:51:15;4.80;;;4.40;;
15159;SDS011;7680;48.800;9.680;2022-07-12T05:54:05;4.75;;;4.35;;
15159;SDS011;7680;48.800;9.680;2022-07-12T05:56:38;4.97;;;4.60;;
15159;SDS011;7680;48.800;9.680;2022-07-12T05:59:12;5.07;;;4.68;;
15159;SDS011;7680;48.800;9.680;2022-07-12T06:01:46;5.07;;;4.60;;
15159;SDS011;7680;48.800;9.680;2022-07-12T06:04:19;5.22;;;4.75;;
15159;SDS011;7680;48.800;9.680;2022-07-12T06:06:52;5.60;;;5.20;;
15159;SDS011;7680;48.800;9.680;2022-07-12T06:09:26;5.43;;;4.93;;
15159;SDS011;7680;48.800;9.680;2022-07-12T06:11:59;5.28;;;4.88;;
15159;SDS011;7680;48.800;9.680;2022-07-12T06:14:32;5.55;;;5.15;;
15159;SDS011;7680;48.800;9.680;2022-07-12T06:17:07;4.45;;;4.15;;
15159;SDS011;7680;48.800;9.680;2022-07-12T06:19:40;5.28;;;4.78;;
15159;SDS011;7680;48.800;9.680;2022-07-12T06:22:13;5.65;;;5.20;;
15159;SDS011;7680;48.800;9.680;2022-07-12T06:24:47;5.00;;;4.60;;
15159;SDS011;7680;48.800;9.680;2022-07-12T06:27:20;4.93;;;4.53;;
15159;SDS011;7680;48.800;9.680;2022-07-12T06:29:53;5.65;;;5.05;;
15159;SDS011;7680;48.800;9.680;2022-07-12T06:32:27;5.15;;;4.75;;
15159;SDS011;7680;48.800;9.680;2022-07-12T06:35:00;5.00;;;4.57;;
15159;SDS011;7680;48.800;9.680;2022-07-12T06:37:34;4.38;;;4.07;;
15159;SDS011;7680;48.800;9.680;2022-07-12T06:40:07;3.53;;;3.10;;
15159;SDS011;7680;48.800;9.680;2022-07-12T06:42:42;2.92;;;2.78;;
15159;SDS011;7680;48.800;9.680;2022-07-12T06:45:16;3.30;;;3.10;;
15159;SDS011;7680;48.800;9.680;2022-07-12T06:47:51;2.92;;;2.30;;
15159;SDS011;7680;48.800;9.680;2022-07-12T06:50:24;2.40;;;2.30;;
15159;SDS011;7680;48.800;9.680;2022-07-12T06:52:57;2.80;;;2.60;;
15159;SDS011;7680;48.800;9.680;2022-07-12T06:55:30;2.60;;;2.40;;
15159;SDS011;7680;48.800;9.680;2022-07-12T06:58:03;2.60;;;2.40;;
15159;SDS011;7680;48.800;9.680;2022-07-12T07:00:37;2.53;;;2.33;;
15159;SDS011;7680;48.800;9.680;2022-07-12T07:03:11;2.72;;;2.53;;
15159;SDS011;7680;48.800;9.680;2022-07-12T07:05:44;2.97;;;2.78;;
15159;SDS011;7680;48.800;9.680;2022-07-12T07:08:18;2.83;;;2.60;;
15159;SDS011;7680;48.800;9.680;2022-07-12T07:10:51;2.35;;;2.25;;
15159;SDS011;7680;48.800;9.680;2022-07-12T07:13:24;2.80;;;2.60;;
15159;SDS011;7680;48.800;9.680;2022-07-12T07:15:57;2.78;;;2.58;;
15159;SDS011;7680;48.800;9.680;2022-07-12T07:18:32;2.58;;;2.22;;
15159;SDS011;7680;48.800;9.680;2022-07-12T07:21:05;2.70;;;2.50;;
15159;SDS011;7680;48.800;9.680;2022-07-12T07:23:38;2.50;;;2.40;;
15159;SDS011;7680;48.800;9.680;2022-07-12T07:26:12;2.10;;;2.00;;
15159;SDS011;7680;48.800;9.680;2022-07-12T07:28:45;2.28;;;2.08;;
15159;SDS011;7680;48.800;9.680;2022-07-12T07:31:38;1.73;;;1.63;;
15159;SDS011;7680;48.800;9.680;2022-07-12T07:34:14;1.80;;;1.70;;
15159;SDS011;7680;48.800;9.680;2022-07-12T07:36:47;1.80;;;1.70;;
15159;SDS011;7680;48.800;9.680;2022-07-12T07:39:20;1.67;;;1.58;;
15159;SDS011;7680;48.800;9.680;2022-07-12T07:41:53;1.50;;;1.40;;
15159;SDS011;7680;48.800;9.680;2022-07-12T07:44:26;1.70;;;1.30;;
15159;SDS011;7680;48.800;9.680;2022-07-12T07:47:04;1.30;;;1.20;;
15159;SDS011;7680;48.800;9.680;2022-07-12T07:49:38;1.10;;;1.10;;
15159;SDS011;7680;48.800;9.680;2022-07-12T07:52:15;1.17;;;1.10;;
15159;SDS011;7680;48.800;9.680;2022-07-12T07:54:49;1.05;;;1.00;;
15159;SDS011;7680;48.800;9.680;2022-07-12T07:57:22;1.20;;;1.20;;
15159;SDS011;7680;48.800;9.680;2022-07-12T07:59:55;1.23;;;1.17;;
15159;SDS011;7680;48.800;9.680;2022-07-12T08:02:28;1.50;;;1.30;;
15159;SDS011;7680;48.800;9.680;2022-07-12T08:05:03;1.85;;;1.05;;
15159;SDS011;7680;48.800;9.680;2022-07-12T08:07:37;2.03;;;1.30;;
15159;SDS011;7680;48.800;9.680;2022-07-12T08:10:26;1.13;;;1.10;;
15159;SDS011;7680;48.800;9.680;2022-07-12T08:12:59;1.63;;;1.33;;
15159;SDS011;7680;48.800;9.680;2022-07-12T08:15:32;1.63;;;1.20;;
15159;SDS011;7680;48.800;9.680;2022-07-12T08:18:06;1.08;;;1.05;;
15159;SDS011;7680;48.800;9.680;2022-07-12T08:20:41;1.20;;;1.10;;
15159;SDS011;7680;48.800;9.680;2022-07-12T08:23:17;1.15;;;1.15;;
15159;SDS011;7680;48.800;9.680;2022-07-12T08:25:50;1.05;;;0.90;;
15159;SDS011;7680;48.800;9.680;2022-07-12T08:28:23;0.90;;;0.90;;
15159;SDS011;7680;48.800;9.680;2022-07-12T08:30:56;1.02;;;1.00;;
15159;SDS011;7680;48.800;9.680;2022-07-12T08:33:29;0.90;;;0.80;;
15159;SDS011;7680;48.800;9.680;2022-07-12T08:36:04;0.90;;;0.90;;
15159;SDS011;7680;48.800;9.680;2022-07-12T08:38:39;0.90;;;0.90;;
15159;SDS011;7680;48.800;9.680;2022-07-12T08:41:15;0.80;;;0.80;;
15159;SDS011;7680;48.800;9.680;2022-07-12T08:43:48;0.95;;;0.90;;
15159;SDS011;7680;48.800;9.680;2022-07-12T08:46:21;0.88;;;0.88;;
15159;SDS011;7680;48.800;9.680;2022-07-12T08:48:54;0.80;;;0.80;;
15159;SDS011;7680;48.800;9.680;2022-07-12T08:51:29;0.80;;;0.80;;
15159;SDS011;7680;48.800;9.680;2022-07-12T08:54:05;1.42;;;0.80;;
15159;SDS011;7680;48.800;9.680;2022-07-12T08:56:40;0.85;;;0.85;;
15159;SDS011;7680;48.800;9.680;2022-07-12T08:59:17;0.70;;;0.70;;
15159;SDS011;7680;48.800;9.680;2022-07-12T09:01:52;0.90;;;0.90;;
15159;SDS011;7680;48.800;9.680;2022-07-12T09:04:26;1.00;;;0.70;;
15159;SDS011;7680;48.800;9.680;2022-07-12T09:07:01;0.80;;;0.80;;
15159;SDS011;7680;48.800;9.680;2022-07-12T09:09:48;0.77;;;0.70;;
15159;SDS011;7680;48.800;9.680;2022-07-12T09:12:22;0.80;;;0.80;;
15159;SDS011;7680;48.800;9.680;2022-07-12T09:14:55;1.08;;;0.80;;
15159;SDS011;7680;48.800;9.680;2022-07-12T09:17:46;0.93;;;0.70;;
15159;SDS011;7680;48.800;9.680;2022-07-12T09:20:30;1.45;;;0.82;;
15159;SDS011;7680;48.800;9.680;2022-07-12T09:23:07;0.85;;;0.85;;
15159;SDS011;7680;48.800;9.680;2022-07-12T09:25:43;0.70;;;0.70;;
15159;SDS011;7680;48.800;9.680;2022-07-12T09:28:17;0.70;;;0.70;;
15159;SDS011;7680;48.800;9.680;2022-07-12T09:30:51;0.60;;;0.60;;
15159;SDS011;7680;48.800;9.680;2022-07-12T09:33:25;1.20;;;0.80;;
15159;SDS011;7680;48.800;9.680;2022-07-12T09:36:16;0.70;;;0.68;;
15159;SDS011;7680;48.800;9.680;2022-07-12T09:38:58;0.70;;;0.70;;
15159;SDS011;7680;48.800;9.680;2022-07-12T09:41:32;0.80;;;0.80;;
15159;SDS011;7680;48.800;9.680;2022-07-12T09:44:06;0.70;;;0.70;;
15159;SDS011;7680;48.800;9.680;2022-07-12T09:46:40;0.70;;;0.70;;
15159;SDS011;7680;48.800;9.680;2022-07-12T09:49:15;0.60;;;0.60;;
15159;SDS011;7680;48.800;9.680;2022-07-12T09:51:56;0.70;;;0.60;;
15159;SDS011;7680;48.800;9.680;2022-07-12T09:54:33;0.60;;;0.60;;
15159;SDS011;7680;48.800;9.680;2022-07-12T09:57:13;0.70;;;0.70;;
15159;SDS011;7680;48.800;9.680;2022-07-12T09:59:53;0.75;;;0.73;;
15159;SDS011;7680;48.800;9.680;2022-07-12T10:02:27;0.70;;;0.70;;
15159;SDS011;7680;48.800;9.680;2022-07-12T10:05:01;0.73;;;0.70;;
15159;SDS011;7680;48.800;9.680;2022-07-12T10:07:37;0.60;;;0.60;;
15159;SDS011;7680;48.800;9.680;2022-07-12T10:10:12;0.88;;;0.88;;
15159;SDS011;7680;48.800;9.680;2022-07-12T10:12:45;1.05;;;0.88;;
15159;SDS011;7680;48.800;9.680;2022-07-12T10:15:20;0.73;;;0.70;;
15159;SDS011;7680;48.800;9.680;2022-07-12T10:17:59;0.60;;;0.60;;
15159;SDS011;7680;48.800;9.680;2022-07-12T10:20:33;0.70;;;0.70;;
15159;SDS011;7680;48.800;9.680;2022-07-12T10:23:30;0.68;;;0.68;;
15159;SDS011;7680;48.800;9.680;2022-07-12T10:26:37;0.80;;;0.80;;
15159;SDS011;7680;48.800;9.680;2022-07-12T10:29:11;0.70;;;0.70;;
15159;SDS011;7680;48.800;9.680;2022-07-12T10:31:52;0.80;;;0.80;;
15159;SDS011;7680;48.800;9.680;2022-07-12T10:34:26;0.73;;;0.73;;
15159;SDS011;7680;48.800;9.680;2022-07-12T10:37:07;0.85;;;0.85;;
15159;SDS011;7680;48.800;9.680;2022-07-12T10:45:49;1.13;;;0.90;;
15159;SDS011;7680;48.800;9.680;2022-07-12T10:48:22;1.25;;;0.80;;
15159;SDS011;7680;48.800;9.680;2022-07-12T10:50:56;0.70;;;0.70;;
15159;SDS011;7680;48.800;9.680;2022-07-12T10:53:30;0.70;;;0.70;;
15159;SDS011;7680;48.800;9.680;2022-07-12T10:56:12;0.85;;;0.70;;
15159;SDS011;7680;48.800;9.680;2022-07-12T10:58:58;0.70;;;0.70;;
15159;SDS011;7680;48.800;9.680;2022-07-12T11:01:32;0.88;;;0.80;;
15159;SDS011;7680;48.800;9.680;2022-07-12T11:04:06;0.77;;;0.77;;
15159;SDS011;7680;48.800;9.680;2022-07-12T11:06:41;0.60;;;0.60;;
15159;SDS011;7680;48.800;9.680;2022-07-12T11:09:16;0.77;;;0.77;;
15159;SDS011;7680;48.800;9.680;2022-07-12T11:11:50;1.15;;;0.95;;
15159;SDS011;7680;48.800;9.680;2022-07-12T11:14:26;0.70;;;0.70;;
15159;SDS011;7680;48.800;9.680;2022-07-12T11:17:03;0.80;;;0.80;;
15159;SDS011;7680;48.800;9.680;2022-07-12T11:19:37;0.65;;;0.65;;
15159;SDS011;7680;48.800;9.680;2022-07-12T11:22:10;0.73;;;0.70;;
15159;SDS011;7680;48.800;9.680;2022-07-12T11:24:43;0.82;;;0.70;;
15159;SDS011;7680;48.800;9.680;2022-07-12T11:27:16;1.10;;;0.70;;
15159;SDS011;7680;48.800;9.680;2022-07-12T11:29:57;0.70;;;0.70;;
15159;SDS011;7680;48.800;9.680;2022-07-12T11:32:35;0.60;;;0.60;;
15159;SDS011;7680;48.800;9.680;2022-07-12T11:35:19;1.17;;;0.70;;
15159;SDS011;7680;48.800;9.680;2022-07-12T11:37:54;0.43;;;0.43;;
15159;SDS011;7680;48.800;9.680;2022-07-12T11:40:29;1.58;;;0.80;;
15159;SDS011;7680;48.800;9.680;2022-07-12T11:43:03;0.93;;;0.70;;
15159;SDS011;7680;48.800;9.680;2022-07-12T11:45:38;0.70;;;0.70;;
15159;SDS011;7680;48.800;9.680;2022-07-12T11:48:11;0.90;;;0.90;;
15159;SDS011;7680;48.800;9.680;2022-07-12T11:50:45;1.05;;;0.88;;
15159;SDS011;7680;48.800;9.680;2022-07-12T11:53:20;0.70;;;0.70;;
15159;SDS011;7680;48.800;9.680;2022-07-12T11:55:57;0.80;;;0.80;;
15159;SDS011;7680;48.800;9.680;2022-07-12T11:58:32;0.82;;;0.82;;
15159;SDS011;7680;48.800;9.680;2022-07-12T12:01:11;0.70;;;0.70;;
15159;SDS011;7680;48.800;9.680;2022-07-12T12:03:44;0.70;;;0.70;;
15159;SDS011;7680;48.800;9.680;2022-07-12T12:06:18;0.65;;;0.65;;
15159;SDS011;7680;48.800;9.680;2022-07-12T12:08:51;0.80;;;0.80;;
15159;SDS011;7680;48.800;9.680;2022-07-12T12:11:26;1.13;;;0.90;;
15159;SDS011;7680;48.800;9.680;2022-07-12T12:14:00;0.95;;;0.85;;
15159;SDS011;7680;48.800;9.680;2022-07-12T12:16:35;0.80;;;0.80;;
15159;SDS011;7680;48.800;9.680;2022-07-12T12:19:10;1.27;;;0.70;;
15159;SDS011;7680;48.800;9.680;2022-07-12T12:21:43;0.80;;;0.80;;
15159;SDS011;7680;48.800;9.680;2022-07-12T12:24:16;0.75;;;0.75;;
15159;SDS011;7680;48.800;9.680;2022-07-12T12:26:50;0.80;;;0.80;;
15159;SDS011;7680;48.800;9.680;2022-07-12T12:32:17;1.55;;;0.70;;
15159;SDS011;7680;48.800;9.680;2022-07-12T12:35:07;0.70;;;0.70;;
15159;SDS011;7680;48.800;9.680;2022-07-12T12:37:41;0.63;;;0.63;;
15159;SDS011;7680;48.800;9.680;2022-07-12T12:40:25;0.65;;;0.65;;
15159;SDS011;7680;48.800;9.680;2022-07-12T12:43:07;0.65;;;0.60;;
15159;SDS011;7680;48.800;9.680;2022-07-12T12:45:48;0.80;;;0.80;;
15159;SDS011;7680;48.800;9.680;2022-07-12T12:48:24;0.77;;;0.75;;
15159;SDS011;7680;48.800;9.680;2022-07-12T12:51:02;0.82;;;0.82;;
15159;SDS011;7680;48.800;9.680;2022-07-12T12:53:38;0.70;;;0.70;;
15159;SDS011;7680;48.800;9.680;2022-07-12T12:56:13;0.70;;;0.70;;
15159;SDS011;7680;48.800;9.680;2022-07-12T12:58:48;0.60;;;0.60;;
15159;SDS011;7680;48.800;9.680;2022-07-12T13:01:22;0.70;;;0.70;;
15159;SDS011;7680;48.800;9.680;2022-07-12T13:03:57;0.75;;;0.70;;
15159;SDS011;7680;48.800;9.680;2022-07-12T13:06:30;0.70;;;0.70;;
15159;SDS011;7680;48.800;9.680;2022-07-12T13:09:03;0.70;;;0.70;;
15159;SDS011;7680;48.800;9.680;2022-07-12T13:11:36;0.60;;;0.60;;
15159;SDS011;7680;48.800;9.680;2022-07-12T13:14:09;1.20;;;0.93;;
15159;SDS011;7680;48.800;9.680;2022-07-12T13:16:42;0.70;;;0.70;;
15159;SDS011;7680;48.800;9.680;2022-07-12T13:19:17;0.80;;;0.80;;
15159;SDS011;7680;48.800;9.680;2022-07-12T13:21:51;1.20;;;0.80;;
15159;SDS011;7680;48.800;9.680;2022-07-12T13:24:24;0.70;;;0.70;;
15159;SDS011;7680;48.800;9.680;2022-07-12T13:26:57;0.95;;;0.82;;
15159;SDS011;7680;48.800;9.680;2022-07-12T13:29:30;0.77;;;0.77;;
15159;SDS011;7680;48.800;9.680;2022-07-12T13:32:04;0.65;;;0.65;;
15159;SDS011;7680;48.800;9.680;2022-07-12T13:34:40;0.70;;;0.70;;
15159;SDS011;7680;48.800;9.680;2022-07-12T13:37:13;1.30;;;0.70;;
15159;SDS011;7680;48.800;9.680;2022-07-12T13:39:46;0.88;;;0.70;;
15159;SDS011;7680;48.800;9.680;2022-07-12T13:42:37;0.80;;;0.80;;
15159;SDS011;7680;48.800;9.680;2022-07-12T13:45:11;0.93;;;0.82;;
15159;SDS011;7680;48.800;9.680;2022-07-12T13:47:46;0.73;;;0.70;;
15159;SDS011;7680;48.800;9.680;2022-07-12T13:50:23;0.70;;;0.70;;
15159;SDS011;7680;48.800;9.680;2022-07-12T13:53:02;0.90;;;0.90;;
15159;SDS011;7680;48.800;9.680;2022-07-12T13:55:36;1.15;;;0.80;;
15159;SDS011;7680;48.800;9.680;2022-07-12T13:58:09;0.77;;;0.77;;
15159;SDS011;7680;48.800;9.680;2022-07-12T14:00:43;0.80;;;0.80;;
15159;SDS011;7680;48.800;9.680;2022-07-12T14:03:16;0.70;;;0.70;;
15159;SDS011;7680;48.800;9.680;2022-07-12T14:05:51;0.70;;;0.70;;
15159;SDS011;7680;48.800;9.680;2022-07-12T14:08:24;0.85;;;0.85;;
15159;SDS011;7680;48.800;9.680;2022-07-12T14:10:57;0.77;;;0.77;;
15159;SDS011;7680;48.800;9.680;2022-07-12T14:13:31;0.70;;;0.70;;
15159;SDS011;7680;48.800;9.680;2022-07-12T14:16:04;0.80;;;0.80;;
15159;SDS011;7680;48.800;9.680;2022-07-12T14:18:38;0.80;;;0.80;;
15159;SDS011;7680;48.800;9.680;2022-07-12T14:21:13;0.88;;;0.88;;
15159;SDS011;7680;48.800;9.680;2022-07-12T14:23:46;0.70;;;0.70;;
15159;SDS011;7680;48.800;9.680;2022-07-12T14:26:19;0.80;;;0.80;;
15159;SDS011;7680;48.800;9.680;2022-07-12T14:28:52;0.70;;;0.70;;
15159;SDS011;7680;48.800;9.680;2022-07-12T14:31:25;0.90;;;0.90;;
15159;SDS011;7680;48.800;9.680;2022-07-12T14:33:58;0.93;;;0.93;;
15159;SDS011;7680;48.800;9.680;2022-07-12T14:36:33;0.70;;;0.70;;
15159;SDS011;7680;48.800;9.680;2022-07-12T14:39:06;0.88;;;0.88;;
15159;SDS011;7680;48.800;9.680;2022-07-12T14:41:39;0.80;;;0.80;;
15159;SDS011;7680;48.800;9.680;2022-07-12T14:44:12;1.10;;;0.70;;
15159;SDS011;7680;48.800;9.680;2022-07-12T14:46:45;0.80;;;0.80;;
15159;SDS011;7680;48.800;9.680;2022-07-12T14:49:19;0.80;;;0.80;;
15159;SDS011;7680;48.800;9.680;2022-07-12T14:51:53;0.77;;;0.77;;
15159;SDS011;7680;48.800;9.680;2022-07-12T14:54:28;0.80;;;0.80;;
15159;SDS011;7680;48.800;9.680;2022-07-12T14:57:01;1.38;;;0.90;;
15159;SDS011;7680;48.800;9.680;2022-07-12T14:59:34;0.80;;;0.80;;
15159;SDS011;7680;48.800;9.680;2022-07-12T15:02:07;0.60;;;0.60;;
15159;SDS011;7680;48.800;9.680;2022-07-12T15:04:41;0.73;;;0.73;;
15159;SDS011;7680;48.800;9.680;2022-07-12T15:07:15;0.77;;;0.77;;
15159;SDS011;7680;48.800;9.680;2022-07-12T15:09:49;0.80;;;0.80;;
15159;SDS011;7680;48.800;9.680;2022-07-12T15:12:22;0.70;;;0.70;;
15159;SDS011;7680;48.800;9.680;2022-07-12T15:14:56;0.77;;;0.65;;
15159;SDS011;7680;48.800;9.680;2022-07-12T15:17:29;1.38;;;0.90;;
15159;SDS011;7680;48.800;9.680;2022-07-12T15:20:03;1.15;;;0.70;;
15159;SDS011;7680;48.800;9.680;2022-07-12T15:22:39;0.70;;;0.70;;
15159;SDS011;7680;48.800;9.680;2022-07-12T15:25:12;0.73;;;0.73;;
15159;SDS011;7680;48.800;9.680;2022-07-12T15:27:45;0.80;;;0.80;;
15159;SDS011;7680;48.800;9.680;2022-07-12T15:30:19;0.70;;;0.70;;
15159;SDS011;7680;48.800;9.680;2022-07-12T15:32:52;0.77;;;0.77;;
15159;SDS011;7680;48.800;9.680;2022-07-12T15:35:26;1.35;;;0.80;;
15159;SDS011;7680;48.800;9.680;2022-07-12T15:38:01;0.65;;;0.65;;
15159;SDS011;7680;48.800;9.680;2022-07-12T15:40:34;0.77;;;0.75;;
15159;SDS011;7680;48.800;9.680;2022-07-12T15:43:07;0.80;;;0.77;;
15159;SDS011;7680;48.800;9.680;2022-07-12T15:45:42;0.80;;;0.80;;
15159;SDS011;7680;48.800;9.680;2022-07-12T15:48:15;0.80;;;0.80;;
15159;SDS011;7680;48.800;9.680;2022-07-12T15:50:49;0.80;;;0.80;;
15159;SDS011;7680;48.800;9.680;2022-07-12T15:53:26;0.73;;;0.73;;